REBEL35 EGXC-EGXC

Flight info

Callsign REBEL35
Flight time 0h 43m
Altitude 40000
Route VFR OAT
Aircraft EUFI/M-VGD/A

Departure

Time 2026-04-21 09:09
Airport RAF Coningsby (EGXC)

Arrival

Time 2026-04-21 09:53
Airport RAF Coningsby (EGXC)
Time Latitude Longitude Altitude Speed Heading
2026-04-21 09:07 53.09515 -0.14724 25 ft 0 kts 180°
2026-04-21 09:08 53.09499 -0.14764 25 ft 5 kts 300°
2026-04-21 09:08 53.09541 -0.14694 25 ft 20 kts 47°
2026-04-21 09:08 53.09661 -0.14662 26 ft 18 kts 341°
2026-04-21 09:09 53.09652 -0.14899 27 ft 72 kts 251°
2026-04-21 09:09 53.09261 -0.16934 615 ft 242 kts 249°
2026-04-21 09:09 53.08632 -0.20154 4899 ft 351 kts 256°
2026-04-21 09:09 53.10857 -0.22027 7784 ft 536 kts 34°
2026-04-21 09:10 53.12523 -0.16055 10816 ft 608 kts 73°
2026-04-21 09:10 53.13833 -0.09373 14474 ft 604 kts 73°
2026-04-21 09:10 53.15130 -0.02682 18345 ft 607 kts 74°
2026-04-21 09:10 53.16416 0.03977 22282 ft 599 kts 74°
2026-04-21 09:11 53.17708 0.10674 25156 ft 602 kts 74°
2026-04-21 09:11 53.18964 0.17159 27609 ft 574 kts 73°
2026-04-21 09:11 53.20167 0.23337 30019 ft 548 kts 73°
2026-04-21 09:11 53.21325 0.29270 32383 ft 528 kts 72°
2026-04-21 09:12 53.22465 0.35112 33843 ft 537 kts 72°
2026-04-21 09:12 53.23633 0.41102 34148 ft 548 kts 72°
2026-04-21 09:12 53.24823 0.47203 34287 ft 557 kts 71°
2026-04-21 09:12 53.26031 0.53389 34424 ft 564 kts 71°
2026-04-21 09:13 53.27255 0.59663 34564 ft 571 kts 71°
2026-04-21 09:13 53.28493 0.66002 34729 ft 576 kts 71°
2026-04-21 09:13 53.29741 0.72392 34926 ft 581 kts 71°
2026-04-21 09:13 53.30999 0.78827 35124 ft 584 kts 71°
2026-04-21 09:14 53.32245 0.85210 35317 ft 585 kts 71°
2026-04-21 09:14 53.33512 0.91695 35500 ft 588 kts 71°
2026-04-21 09:14 53.34784 0.98204 35699 ft 590 kts 71°
2026-04-21 09:14 53.36740 1.03601 35492 ft 513 kts 24°
2026-04-21 09:15 53.40092 1.06174 35547 ft 542 kts 24°
2026-04-21 09:15 53.43563 1.08845 35613 ft 554 kts 24°
2026-04-21 09:15 53.50675 1.14355 35772 ft 570 kts 24°
2026-04-21 09:16 53.57942 1.19996 35966 ft 580 kts 24°
2026-04-21 09:16 53.65318 1.25732 36175 ft 586 kts 24°
2026-04-21 09:17 53.68985 1.28588 36278 ft 589 kts 24°
2026-04-21 09:17 53.72755 1.31528 36380 ft 591 kts 25°
2026-04-21 09:17 53.76494 1.34445 36491 ft 592 kts 24°
2026-04-21 09:17 53.80191 1.37346 36621 ft 593 kts 25°
2026-04-21 09:18 53.83520 1.36159 36799 ft 487 kts 312°
2026-04-21 09:18 53.85825 1.31759 36895 ft 529 kts 312°
2026-04-21 09:18 53.88337 1.26947 36300 ft 558 kts 312°
2026-04-21 09:18 53.90928 1.21935 36108 ft 572 kts 312°
2026-04-21 09:19 53.93573 1.16828 36220 ft 578 kts 312°
2026-04-21 09:19 53.96240 1.11676 36312 ft 583 kts 312°
2026-04-21 09:19 54.01637 1.01114 34719 ft 613 kts 302°
2026-04-21 09:20 54.03657 0.94633 34032 ft 618 kts 299°
2026-04-21 09:20 54.05700 0.88214 33994 ft 616 kts 299°
2026-04-21 09:20 54.09793 0.75416 33915 ft 614 kts 299°
2026-04-21 09:21 54.12774 0.71794 33925 ft 524 kts 351°
2026-04-21 09:21 54.16394 0.71476 33971 ft 523 kts
2026-04-21 09:21 54.19842 0.73256 33793 ft 521 kts 40°
2026-04-21 09:21 54.20987 0.78656 33355 ft 507 kts 102°
2026-04-21 09:22 54.19735 0.84389 33457 ft 534 kts 113°
2026-04-21 09:22 54.17960 0.89962 33271 ft 514 kts 120°
2026-04-21 09:22 54.16181 0.94954 33089 ft 491 kts 120°
2026-04-21 09:22 54.13999 0.99904 32742 ft 554 kts 156°
2026-04-21 09:23 54.10019 1.02992 32395 ft 692 kts 154°
2026-04-21 09:23 54.05259 1.06637 32438 ft 816 kts 154°
2026-04-21 09:23 53.99699 1.11014 32564 ft 938 kts 154°
2026-04-21 09:23 53.93462 1.15953 32694 ft 1043 kts 154°
2026-04-21 09:24 53.86549 1.21432 32658 ft 1152 kts 154°
2026-04-21 09:24 53.78943 1.27457 32533 ft 1257 kts 154°
2026-04-21 09:24 53.70844 1.33867 32335 ft 1295 kts 154°
2026-04-21 09:24 53.62678 1.40311 32020 ft 1295 kts 154°
2026-04-21 09:25 53.54816 1.46503 31739 ft 1126 kts 154°
2026-04-21 09:25 53.48615 1.51352 31398 ft 852 kts 154°
2026-04-21 09:25 53.43830 1.55059 30585 ft 683 kts 154°
2026-04-21 09:25 53.39751 1.58196 29996 ft 619 kts 154°
2026-04-21 09:26 53.35897 1.61148 29555 ft 603 kts 154°
2026-04-21 09:26 53.32110 1.64039 29151 ft 593 kts 154°
2026-04-21 09:26 53.28386 1.66879 28777 ft 585 kts 154°
2026-04-21 09:26 53.25507 1.70754 27368 ft 528 kts 104°
2026-04-21 09:27 53.24060 1.76506 26784 ft 545 kts 115°
2026-04-21 09:27 53.23000 1.82467 27363 ft 540 kts 102°
2026-04-21 09:27 53.22150 1.88639 28304 ft 549 kts 102°
2026-04-21 09:27 53.21292 1.94881 29045 ft 554 kts 102°
2026-04-21 09:28 53.20196 2.00947 29637 ft 528 kts 135°
2026-04-21 09:28 53.17343 1.99732 29820 ft 525 kts 269°
2026-04-21 09:28 53.18793 1.94258 29924 ft 556 kts 300°
2026-04-21 09:28 53.20721 1.88458 29834 ft 580 kts 300°
2026-04-21 09:29 53.22707 1.82506 29637 ft 592 kts 300°
2026-04-21 09:29 53.24725 1.76458 29454 ft 597 kts 300°
2026-04-21 09:29 53.26739 1.70419 29200 ft 592 kts 300°
2026-04-21 09:29 53.28717 1.64403 28923 ft 590 kts 299°
2026-04-21 09:30 53.30606 1.58333 28644 ft 587 kts 298°
2026-04-21 09:30 53.32463 1.52263 28360 ft 585 kts 298°
2026-04-21 09:30 53.34314 1.46203 28078 ft 584 kts 298°
2026-04-21 09:30 53.36162 1.40151 27780 ft 582 kts 298°
2026-04-21 09:31 53.37972 1.34233 27836 ft 576 kts 298°
2026-04-21 09:31 53.39798 1.28281 27906 ft 572 kts 298°
2026-04-21 09:31 53.41612 1.22360 27967 ft 570 kts 298°
2026-04-21 09:31 53.43376 1.16405 28016 ft 569 kts 297°
2026-04-21 09:32 53.46888 1.04490 28066 ft 569 kts 297°
2026-04-21 09:32 53.49803 0.94603 28073 ft 569 kts 297°
2026-04-21 09:33 53.53075 0.82487 27917 ft 572 kts 290°
2026-04-21 09:33 53.54475 0.76223 27643 ft 574 kts 292°
2026-04-21 09:33 53.55340 0.69741 27365 ft 571 kts 278°
2026-04-21 09:34 53.55664 0.63057 26992 ft 578 kts 272°
2026-04-21 09:34 53.54576 0.57680 25842 ft 424 kts 175°
2026-04-21 09:34 53.52046 0.58560 25146 ft 391 kts 162°
2026-04-21 09:34 53.49265 0.59896 25630 ft 442 kts 162°
2026-04-21 09:35 53.46108 0.61412 26388 ft 502 kts 162°
2026-04-21 09:35 53.42549 0.63114 27316 ft 555 kts 163°
2026-04-21 09:35 53.38758 0.64932 28113 ft 575 kts 163°
2026-04-21 09:35 53.34883 0.66753 28833 ft 579 kts 163°
2026-04-21 09:36 53.31003 0.68522 29534 ft 577 kts 164°
2026-04-21 09:36 53.27106 0.70284 29665 ft 586 kts 164°
2026-04-21 09:36 53.23291 0.70045 29688 ft 555 kts 191°
2026-04-21 09:36 53.19401 0.69065 29681 ft 574 kts 184°
2026-04-21 09:37 53.15389 0.68851 29566 ft 579 kts 178°
2026-04-21 09:37 53.11398 0.69543 29433 ft 574 kts 162°
2026-04-21 09:37 53.07739 0.72382 29690 ft 592 kts 143°
2026-04-21 09:37 53.04664 0.76929 30123 ft 607 kts 131°
2026-04-21 09:38 53.02188 0.82672 30376 ft 621 kts 118°
2026-04-21 09:38 53.00472 0.89285 30645 ft 623 kts 110°
2026-04-21 09:38 52.98863 0.95920 31019 ft 617 kts 111°
2026-04-21 09:38 52.97286 1.02497 31271 ft 597 kts 110°
2026-04-21 09:39 52.96009 1.08364 31463 ft 503 kts 108°
2026-04-21 09:39 52.94878 1.13668 31549 ft 472 kts 108°
2026-04-21 09:39 52.93808 1.18588 31266 ft 434 kts 110°
2026-04-21 09:39 52.92786 1.22931 31078 ft 375 kts 110°
2026-04-21 09:40 52.93296 1.25534 28416 ft 278 kts 338°
2026-04-21 09:40 52.95733 1.23444 24308 ft 525 kts 332°
2026-04-21 09:40 52.99228 1.20300 20478 ft 576 kts 333°
2026-04-21 09:40 53.02625 1.17237 17727 ft 537 kts 333°
2026-04-21 09:41 53.05809 1.14353 15181 ft 504 kts 333°
2026-04-21 09:41 53.08798 1.11631 12842 ft 476 kts 334°
2026-04-21 09:41 53.11627 1.09042 10733 ft 452 kts 334°
2026-04-21 09:41 53.14316 1.06564 8766 ft 431 kts 334°
2026-04-21 09:42 53.16888 1.04182 6928 ft 415 kts 334°
2026-04-21 09:42 53.19363 1.01879 5223 ft 399 kts 334°
2026-04-21 09:42 53.21735 0.99656 3668 ft 383 kts 334°
2026-04-21 09:42 53.24015 0.97516 3361 ft 393 kts 334°
2026-04-21 09:43 53.26625 0.95123 3719 ft 464 kts 334°
2026-04-21 09:43 53.29681 0.92372 3255 ft 531 kts 334°
2026-04-21 09:43 53.33052 0.89367 2731 ft 575 kts 334°
2026-04-21 09:43 53.36675 0.86150 2142 ft 598 kts 334°
2026-04-21 09:44 53.40368 0.82879 1506 ft 603 kts 334°
2026-04-21 09:44 53.44043 0.79532 1396 ft 600 kts 317°
2026-04-21 09:44 53.43508 0.72758 1881 ft 581 kts 230°
2026-04-21 09:44 53.41094 0.68523 3026 ft 442 kts 224°
2026-04-21 09:45 53.39171 0.65199 3819 ft 360 kts 225°
2026-04-21 09:45 53.37556 0.62382 3934 ft 315 kts 224°
2026-04-21 09:45 53.36115 0.59868 3790 ft 283 kts 224°
2026-04-21 09:45 53.34859 0.57663 3607 ft 236 kts 224°
2026-04-21 09:46 53.33880 0.55903 3346 ft 175 kts 224°
2026-04-21 09:46 53.33152 0.54577 2757 ft 195 kts 223°
2026-04-21 09:46 53.31485 0.51866 2335 ft 444 kts 222°
2026-04-21 09:46 53.28864 0.47715 2611 ft 585 kts 222°
2026-04-21 09:47 53.25723 0.42796 3937 ft 638 kts 222°
2026-04-21 09:47 53.22477 0.37740 3733 ft 621 kts 222°
2026-04-21 09:47 53.19412 0.32955 3815 ft 590 kts 221°
2026-04-21 09:47 53.16441 0.28391 3985 ft 573 kts 221°
2026-04-21 09:48 53.13524 0.23928 4092 ft 565 kts 221°
2026-04-21 09:48 53.12313 0.18638 3148 ft 494 kts 285°
2026-04-21 09:48 53.13046 0.13550 2931 ft 416 kts 285°
2026-04-21 09:48 53.13665 0.09192 2711 ft 361 kts 285°
2026-04-21 09:49 53.13979 0.05362 2226 ft 328 kts 255°
2026-04-21 09:49 53.13142 0.01625 1661 ft 333 kts 248°
2026-04-21 09:49 53.12340 -0.01748 1311 ft 293 kts 248°
2026-04-21 09:49 53.11728 -0.04740 1159 ft 251 kts 252°
2026-04-21 09:50 53.11200 -0.07489 1110 ft 284 kts 252°
2026-04-21 09:50 53.10987 -0.08594 1099 ft 312 kts 252°
2026-04-21 09:50 53.08561 -0.17127 1147 ft 207 kts 169°
2026-04-21 09:51 53.07785 -0.16103 846 ft 138 kts 96°
2026-04-21 09:51 53.07927 -0.14444 935 ft 155 kts 73°
2026-04-21 09:51 53.08234 -0.12725 1080 ft 148 kts 73°
2026-04-21 09:51 53.08826 -0.11488 1048 ft 145 kts 21°
2026-04-21 09:52 53.09694 -0.11977 834 ft 147 kts 308°
2026-04-21 09:52 53.09902 -0.13614 267 ft 151 kts 256°
2026-04-21 09:52 53.09562 -0.15367 26 ft 152 kts 251°
2026-04-21 09:52 53.09304 -0.16717 27 ft 100 kts 252°
2026-04-21 09:53 53.09123 -0.17545 27 ft 26 kts 252°
2026-04-21 09:53 53.09141 -0.17808 26 ft 23 kts 294°
2026-04-21 09:53 53.09213 -0.17983 25 ft 15 kts 34°
2026-04-21 09:53 53.09266 -0.17781 27 ft 11 kts 72°
2026-04-21 09:54 53.09317 -0.17735 25 ft 12 kts 24°
2026-04-21 09:54 53.09384 -0.17724 25 ft 0 kts 24°